Time;durP1;ratioP1;P1;durP2;ratioP2;P2;SDS_P1;SDS_P2;PMS_P1;PMS_P2;Temp;Humidity;BMP_temperature;BMP_pressure;BME280_temperature;BME280_humidity;BME280_pressure;Samples;Min_cycle;Max_cycle;Signal;HPM_P1;HPM_P2
2021/04/17 00:02:28;;;;;;;14.07;7.92;;;;;;;5.48;73.24;100668.55;2131103;82;28137;-69
2021/04/17 00:05:30;;;;;;;13.58;7.50;;;;;;;5.48;73.25;100668.55;2143917;82;28837;-71
2021/04/17 00:08:32;;;;;;;16.35;8.13;;;;;;;5.46;73.15;100662.39;2144577;82;31608;-71
2021/04/17 00:11:34;;;;;;;15.45;8.38;;;;;;;5.43;73.17;100659.80;2124693;80;33123;-69
2021/04/17 00:14:38;;;;;;;16.15;8.03;;;;;;;5.43;73.17;100657.61;2206732;80;28863;-79
2021/04/17 00:17:40;;;;;;;13.05;7.10;;;;;;;5.42;73.28;100657.19;2193983;80;28135;-76
2021/04/17 00:20:42;;;;;;;9.45;5.97;;;;;;;5.43;73.34;100655.81;2201810;80;29104;-79
2021/04/17 00:23:45;;;;;;;15.60;5.90;;;;;;;5.44;73.25;100645.61;2214229;80;31190;-78
2021/04/17 00:26:47;;;;;;;15.23;6.72;;;;;;;5.45;73.28;100644.70;2214514;80;33155;-80
2021/04/17 00:29:49;;;;;;;10.60;5.72;;;;;;;5.48;73.34;100647.30;2203676;80;28901;-71
2021/04/17 00:32:52;;;;;;;11.75;6.40;;;;;;;5.48;73.21;100645.97;2185339;80;28178;-75
2021/04/17 00:35:54;;;;;;;17.85;7.10;;;;;;;5.52;73.27;100649.42;2178234;80;28134;-80
2021/04/17 00:38:56;;;;;;;13.05;6.97;;;;;;;5.53;73.27;100651.64;2177927;81;31140;-72
2021/04/17 00:41:58;;;;;;;13.35;6.92;;;;;;;5.51;73.17;100647.67;2169402;81;33226;-80
2021/04/17 00:45:00;;;;;;;12.95;7.37;;;;;;;5.54;73.27;100648.07;2174441;80;29062;-83
2021/04/17 00:48:02;;;;;;;13.35;8.18;;;;;;;5.54;73.15;100651.59;2178515;80;28223;-79
2021/04/17 00:51:05;;;;;;;17.50;8.25;;;;;;;5.52;73.20;100648.09;2178431;80;29275;-82
2021/04/17 00:54:07;;;;;;;20.17;8.15;;;;;;;5.48;73.12;100650.39;2177920;81;31207;-81
2021/04/17 00:57:10;;;;;;;13.22;6.65;;;;;;;5.47;73.13;100657.94;2177994;81;33126;-81
2021/04/17 01:00:13;;;;;;;18.05;7.10;;;;;;;5.45;73.06;100654.00;2177285;81;28854;-78
2021/04/17 01:03:36;;;;;;;14.40;7.58;;;;;;;5.47;73.21;100652.62;2195816;80;27708;-80
2021/04/17 01:07:04;;;;;;;15.60;7.87;;;;;;;5.49;73.20;100656.12;2177160;81;28837;-79
2021/04/17 01:10:33;;;;;;;12.78;6.75;;;;;;;5.50;73.13;100654.36;2200757;80;32069;-78
2021/04/17 01:13:35;;;;;;;14.65;6.85;;;;;;;5.50;73.14;100655.69;2192867;80;33125;-81
2021/04/17 01:16:37;;;;;;;10.65;6.12;;;;;;;5.48;73.08;100654.37;2197963;80;29735;-72
2021/04/17 01:19:57;;;;;;;15.53;6.87;;;;;;;5.48;73.22;100654.37;2216687;80;27646;-80
2021/04/17 01:23:18;;;;;;;13.68;7.08;;;;;;;5.47;73.15;100648.64;2201758;80;28818;-80
2021/04/17 01:26:25;;;;;;;11.53;7.10;;;;;;;5.47;73.16;100648.64;2183155;80;32611;-80
2021/04/17 01:29:27;;;;;;;20.30;7.58;;;;;;;5.48;73.26;100650.39;2216363;80;33154;-79
2021/04/17 01:32:30;;;;;;;13.08;6.53;;;;;;;5.51;73.30;100649.47;2194455;80;29720;-79
2021/04/17 01:35:32;;;;;;;14.10;7.20;;;;;;;5.53;73.22;100651.64;2215837;80;28208;-79
2021/04/17 01:38:43;;;;;;;20.23;7.85;;;;;;;5.55;73.27;100652.45;2215952;80;29775;-79
2021/04/17 01:41:51;;;;;;;15.20;6.95;;;;;;;5.56;73.21;100659.08;2215691;80;30937;-78
2021/04/17 01:44:53;;;;;;;18.82;7.40;;;;;;;5.57;73.19;100651.96;2216389;80;33117;-77
2021/04/17 01:47:58;;;;;;;16.82;8.53;;;;;;;5.57;73.20;100654.62;2182867;80;28867;-81
2021/04/17 01:51:01;;;;;;;17.37;8.00;;;;;;;5.59;73.25;100655.02;2178298;81;32544;-78
2021/04/17 01:54:08;;;;;;;14.15;7.90;;;;;;;5.60;73.19;100653.22;2205358;80;29756;-77
2021/04/17 01:57:17;;;;;;;19.77;8.75;;;;;;;5.58;73.10;100651.95;2213838;80;31251;-78
2021/04/17 02:00:20;;;;;;;25.37;9.45;;;;;;;5.56;73.15;100655.09;2216348;80;33540;-69
2021/04/17 02:03:22;;;;;;;15.30;8.15;;;;;;;5.52;73.05;100649.89;2198379;80;28796;-76
2021/04/17 02:06:25;;;;;;;17.92;8.95;;;;;;;5.50;73.19;100645.06;2178710;80;27590;-66
2021/04/17 02:09:27;;;;;;;24.43;8.58;;;;;;;5.47;73.24;100643.33;2212891;80;28820;-78
2021/04/17 02:12:29;;;;;;;21.68;8.48;;;;;;;5.44;73.22;100650.06;2211711;80;31210;-76
2021/04/17 02:15:33;;;;;;;16.23;9.15;;;;;;;5.44;73.36;100643.42;2185579;80;33212;-78
2021/04/17 02:18:55;;;;;;;18.32;8.48;;;;;;;5.46;73.38;100646.92;2185082;81;28850;-76
2021/04/17 02:21:58;;;;;;;19.25;9.15;;;;;;;5.47;73.45;100649.53;2188462;80;27654;-67
2021/04/17 02:25:03;;;;;;;23.42;9.05;;;;;;;5.44;73.34;100637.64;2223409;80;28892;-75
2021/04/17 02:28:07;;;;;;;22.62;9.70;;;;;;;5.44;73.45;100642.95;2183340;81;31131;-72
2021/04/17 02:31:09;;;;;;;21.12;11.08;;;;;;;5.43;73.39;100645.66;2184285;81;33192;-75
2021/04/17 02:34:11;;;;;;;25.15;10.40;;;;;;;5.41;73.51;100644.34;2186956;80;28850;-75
2021/04/17 02:37:13;;;;;;;23.35;10.50;;;;;;;5.39;73.50;100647.95;2185560;80;27642;-79
2021/04/17 02:40:15;;;;;;;27.35;10.32;;;;;;;5.40;73.54;100639.94;2184885;81;28814;-78
2021/04/17 02:43:18;;;;;;;15.13;9.85;;;;;;;5.38;73.48;100640.42;2211353;80;32066;-79
2021/04/17 02:46:20;;;;;;;28.80;11.65;;;;;;;5.33;73.53;100637.02;2222827;80;33208;-78
2021/04/17 02:49:22;;;;;;;19.27;10.60;;;;;;;5.30;73.59;100636.61;2194149;80;28859;-79
2021/04/17 02:52:24;;;;;;;23.42;11.53;;;;;;;5.29;73.69;100633.56;2185433;80;27752;-72
2021/04/17 02:55:26;;;;;;;21.62;10.48;;;;;;;5.28;73.74;100626.94;2188510;80;29725;-77
2021/04/17 02:58:28;;;;;;;24.82;10.40;;;;;;;5.28;73.73;100626.94;2185120;81;31118;-75
2021/04/17 03:01:30;;;;;;;17.67;10.80;;;;;;;5.25;73.76;100621.25;2187509;80;33204;-78
2021/04/17 03:04:33;;;;;;;20.77;9.30;;;;;;;5.23;73.81;100624.39;2223513;80;29064;-78
2021/04/17 03:07:35;;;;;;;21.37;9.58;;;;;;;5.25;73.85;100621.69;2223004;80;27632;-76
2021/04/17 03:10:37;;;;;;;18.45;8.68;;;;;;;5.24;73.89;100620.83;2220641;80;29716;-76
2021/04/17 03:13:39;;;;;;;18.42;8.80;;;;;;;5.22;73.86;100617.33;2218769;80;31584;-79
2021/04/17 03:16:42;;;;;;;21.40;9.63;;;;;;;5.24;73.93;100618.61;2218894;80;33633;-76
2021/04/17 03:19:44;;;;;;;19.77;9.13;;;;;;;5.26;73.98;100616.80;2220146;80;30147;-78
2021/04/17 03:22:46;;;;;;;15.10;8.63;;;;;;;5.27;73.99;100614.56;2202525;80;27559;-68
2021/04/17 03:25:48;;;;;;;21.68;9.93;;;;;;;5.26;73.99;100619.45;2182355;80;28811;-70
2021/04/17 03:28:50;;;;;;;15.88;8.13;;;;;;;5.27;74.00;100620.77;2185206;80;31179;-77
2021/04/17 03:31:53;;;;;;;19.30;9.13;;;;;;;5.26;73.92;100622.11;2186163;80;34383;-74
2021/04/17 03:34:55;;;;;;;19.30;9.83;;;;;;;5.24;74.02;100617.28;2181295;81;30063;-78
2021/04/17 03:37:59;;;;;;;21.87;9.58;;;;;;;5.22;73.96;100620.42;2186769;80;27795;-76
2021/04/17 03:41:02;;;;;;;18.00;8.50;;;;;;;5.19;74.03;100617.39;2205617;80;29306;-72
2021/04/17 03:44:05;;;;;;;18.30;9.25;;;;;;;5.19;74.09;100621.84;2208566;80;32503;-75
2021/04/17 03:47:07;;;;;;;17.85;8.05;;;;;;;5.19;74.11;100617.86;2187709;80;33233;-66
2021/04/17 03:50:11;;;;;;;14.98;9.80;;;;;;;5.15;73.98;100622.34;2219860;80;29157;-79
2021/04/17 03:53:13;;;;;;;17.30;9.47;;;;;;;5.15;74.10;100630.31;2220537;80;27653;-81
2021/04/17 03:56:16;;;;;;;14.95;9.08;;;;;;;5.15;74.24;100621.02;2218684;80;28820;-78
2021/04/17 03:59:18;;;;;;;17.90;8.80;;;;;;;5.16;74.18;100632.95;2188166;80;32126;-79
2021/04/17 04:02:20;;;;;;;17.62;8.98;;;;;;;5.18;74.14;100634.23;2181584;81;33114;-77
2021/04/17 04:05:22;;;;;;;23.12;9.80;;;;;;;5.20;74.14;100632.89;2181665;81;29145;-76
2021/04/17 04:08:24;;;;;;;18.20;10.03;;;;;;;5.19;74.11;100637.78;2195109;80;27764;-78
2021/04/17 04:11:26;;;;;;;21.25;9.88;;;;;;;5.19;74.09;100647.08;2219778;78;28884;-80
2021/04/17 04:14:28;;;;;;;18.57;9.90;;;;;;;5.17;74.09;100645.33;2220033;80;32127;-78
2021/04/17 04:17:30;;;;;;;24.32;8.55;;;;;;;5.16;74.10;100642.25;2211405;80;34030;-79
2021/04/17 04:20:32;;;;;;;19.82;9.55;;;;;;;5.16;74.06;100650.65;2181831;81;29973;-79
2021/04/17 04:23:35;;;;;;;17.10;9.18;;;;;;;5.15;74.16;100651.56;2181871;81;27578;-78
2021/04/17 04:26:37;;;;;;;16.67;8.83;;;;;;;5.19;74.22;100658.56;2182527;80;28884;-78
2021/04/17 04:29:40;;;;;;;16.80;8.83;;;;;;;5.20;74.17;100656.33;2216210;80;31311;-78
2021/04/17 04:32:42;;;;;;;19.77;9.85;;;;;;;5.23;74.22;100655.38;2219499;80;34056;-77
2021/04/17 04:35:44;;;;;;;18.05;9.40;;;;;;;5.23;74.07;100656.27;2215347;80;29210;-78
2021/04/17 04:38:47;;;;;;;17.40;9.55;;;;;;;5.22;74.07;100655.84;2204706;80;27697;-77
2021/04/17 04:41:49;;;;;;;17.65;9.43;;;;;;;5.24;74.14;100651.81;2220461;80;28818;-66
2021/04/17 04:44:51;;;;;;;15.38;9.13;;;;;;;5.23;74.08;100652.72;2220533;80;32014;-69
2021/04/17 04:47:53;;;;;;;17.90;10.63;;;;;;;5.25;74.17;100658.88;2211403;80;33532;-66
2021/04/17 04:50:55;;;;;;;16.90;10.28;;;;;;;5.25;74.15;100664.19;2207194;80;29741;-66
2021/04/17 04:53:57;;;;;;;19.42;10.85;;;;;;;5.26;74.18;100662.84;2220500;80;27740;-65
2021/04/17 04:56:59;;;;;;;20.05;10.88;;;;;;;5.30;74.19;100667.63;2219072;80;28823;-66
2021/04/17 05:00:03;;;;;;;19.90;12.18;;;;;;;5.32;74.15;100668.00;2182679;80;31185;-65
2021/04/17 05:03:05;;;;;;;21.00;12.75;;;;;;;5.37;74.25;100672.34;2181621;81;33064;-67
2021/04/17 05:06:07;;;;;;;20.55;13.13;;;;;;;5.38;74.15;100670.11;2181966;80;29160;-65
2021/04/17 05:09:10;;;;;;;27.07;12.68;;;;;;;5.40;74.09;100672.28;2186408;80;28303;-69
2021/04/17 05:12:13;;;;;;;20.82;11.60;;;;;;;5.41;74.05;100675.37;2192316;80;29007;-68
2021/04/17 05:15:15;;;;;;;17.12;10.98;;;;;;;5.42;74.12;100670.47;2213935;80;31137;-67
2021/04/17 05:18:17;;;;;;;19.73;12.28;;;;;;;5.45;74.13;100679.24;2196956;80;32830;-66
2021/04/17 05:21:19;;;;;;;20.10;12.40;;;;;;;5.47;74.12;100673.88;2177926;81;29163;-75
2021/04/17 05:24:21;;;;;;;21.68;16.07;;;;;;;5.49;74.10;100680.04;2177994;81;27616;-65
2021/04/17 05:27:23;;;;;;;17.45;12.15;;;;;;;5.48;74.13;100670.31;2196021;80;28823;-70
2021/04/17 05:30:26;;;;;;;20.72;14.40;;;;;;;5.53;74.14;100675.55;2216519;80;31133;-68
2021/04/17 05:33:28;;;;;;;24.12;13.30;;;;;;;5.56;74.12;100674.13;2216630;80;34048;-76
2021/04/17 05:36:30;;;;;;;21.73;11.25;;;;;;;5.57;74.07;100674.11;2215028;80;30087;-71
2021/04/17 05:39:32;;;;;;;25.05;15.23;;;;;;;5.58;74.07;100670.55;2186638;80;27757;-69
2021/04/17 05:42:34;;;;;;;24.02;14.30;;;;;;;5.60;74.05;100666.08;2177989;81;28849;-76
2021/04/17 05:45:36;;;;;;;22.75;12.00;;;;;;;5.63;73.95;100669.11;2170051;80;31254;-77
2021/04/17 05:48:38;;;;;;;23.10;13.22;;;;;;;5.65;73.96;100666.40;2196372;80;34356;-74
2021/04/17 05:51:42;;;;;;;25.95;13.03;;;;;;;5.66;73.96;100665.48;2216192;80;30023;-65
2021/04/17 05:54:44;;;;;;;23.50;14.43;;;;;;;5.65;73.94;100670.38;2216671;80;27662;-72
2021/04/17 05:57:46;;;;;;;26.70;13.98;;;;;;;5.66;74.02;100678.34;2204888;80;28801;-75
2021/04/17 06:00:48;;;;;;;27.73;13.93;;;;;;;5.68;74.05;100678.30;2178022;81;32154;-68
2021/04/17 06:03:50;;;;;;;33.92;21.12;;;;;;;5.71;74.13;100685.73;2178502;80;33091;-75
2021/04/17 06:06:52;;;;;;;31.68;18.55;;;;;;;5.72;74.08;100679.51;2177905;81;29174;-70
2021/04/17 06:09:55;;;;;;;29.30;15.75;;;;;;;5.77;74.10;100675.44;2206222;80;27670;-71
2021/04/17 06:12:58;;;;;;;26.77;14.43;;;;;;;5.83;74.14;100674.41;2177776;81;28858;-77
2021/04/17 06:16:01;;;;;;;24.35;13.25;;;;;;;5.86;73.98;100675.67;2177814;81;32089;-76
2021/04/17 06:19:06;;;;;;;23.60;11.97;;;;;;;5.88;73.94;100683.12;2197377;80;32992;-66
2021/04/17 06:22:08;;;;;;;26.23;14.98;;;;;;;5.86;73.91;100680.52;2178100;81;29305;-76
2021/04/17 06:25:12;;;;;;;25.12;13.88;;;;;;;5.84;73.86;100679.68;2177772;81;27590;-74
2021/04/17 06:28:14;;;;;;;26.70;14.87;;;;;;;5.85;73.90;100681.91;2185623;80;29788;-66
2021/04/17 06:31:17;;;;;;;24.75;15.25;;;;;;;5.85;73.90;100685.42;2177068;81;30464;-68
2021/04/17 06:34:19;;;;;;;25.57;15.50;;;;;;;5.84;73.96;100683.67;2177982;81;34212;-79
2021/04/17 06:37:22;;;;;;;35.43;17.65;;;;;;;5.85;73.87;100688.08;2177267;81;30078;-74
2021/04/17 06:40:25;;;;;;;33.92;18.45;;;;;;;5.87;73.91;100693.38;2195809;80;27611;-71
2021/04/17 06:43:27;;;;;;;29.10;15.43;;;;;;;5.85;73.85;100679.24;2216875;80;27950;-75
2021/04/17 06:46:33;;;;;;;29.98;14.63;;;;;;;5.85;73.88;100684.09;2216824;80;31148;-76
2021/04/17 06:49:36;;;;;;;27.58;13.90;;;;;;;5.85;73.92;100685.89;2192487;80;33092;-75
2021/04/17 06:52:39;;;;;;;28.55;13.75;;;;;;;5.86;73.88;100674.34;2178027;81;29157;-77
2021/04/17 06:55:41;;;;;;;35.30;17.82;;;;;;;5.90;73.98;100682.64;2148779;81;27617;-67
2021/04/17 06:58:44;;;;;;;35.65;18.42;;;;;;;5.96;74.14;100682.51;2194739;80;28861;-64
2021/04/17 07:01:46;;;;;;;34.92;18.67;;;;;;;6.05;74.09;100682.77;2216427;80;31140;-70
2021/04/17 07:04:51;;;;;;;30.77;15.95;;;;;;;6.14;74.09;100685.66;2179089;78;33081;-61
2021/04/17 07:07:53;;;;;;;;;;;;;;;6.19;73.90;100685.95;2185919;80;30297;-63
2021/04/17 07:10:55;;;;;;;32.38;17.10;;;;;;;6.23;73.90;100680.98;2179196;80;27891;-63
2021/04/17 07:14:17;;;;;;;44.42;20.95;;;;;;;6.26;73.75;100681.34;2178489;80;28804;-63
2021/04/17 07:17:20;;;;;;;44.63;24.37;;;;;;;6.33;73.92;100680.73;2179119;81;31660;-62
2021/04/17 07:20:27;;;;;;;31.80;15.45;;;;;;;6.35;73.67;100681.56;2180147;80;33117;-62
2021/04/17 07:23:40;;;;;;;29.10;16.20;;;;;;;6.44;73.91;100677.36;2154002;81;29237;-62
2021/04/17 07:26:43;;;;;;;35.00;16.62;;;;;;;6.52;73.67;100679.81;2200502;80;27654;-62
2021/04/17 07:29:46;;;;;;;32.60;16.65;;;;;;;6.56;73.64;100686.78;2204461;80;29670;-62
2021/04/17 07:33:04;;;;;;;35.23;17.65;;;;;;;6.63;73.53;100688.81;2181183;80;31142;-62
2021/04/17 07:36:08;;;;;;;39.73;20.75;;;;;;;6.66;73.43;100688.73;2210541;80;33120;-62
2021/04/17 07:39:29;;;;;;;31.60;17.75;;;;;;;6.73;73.50;100690.33;2201456;80;30328;-62
2021/04/17 07:42:39;;;;;;;33.35;17.95;;;;;;;6.80;73.36;100693.22;2179152;81;27724;-63
2021/04/17 07:45:42;;;;;;;38.58;21.45;;;;;;;6.84;73.28;100682.05;2178975;81;28833;-63
2021/04/17 07:48:44;;;;;;;29.70;15.00;;;;;;;6.90;73.26;100685.84;2179672;80;31552;-62
2021/04/17 07:52:11;;;;;;;25.97;15.23;;;;;;;6.96;73.10;100695.45;2206477;80;33055;-63
2021/04/17 07:55:17;;;;;;;35.20;18.80;;;;;;;6.97;73.06;100691.88;2217656;80;30037;-63
2021/04/17 07:58:20;;;;;;;33.10;17.98;;;;;;;6.95;72.88;100688.41;2193288;80;28016;-63
2021/04/17 08:01:24;;;;;;;23.98;15.32;;;;;;;6.97;72.83;100692.77;2196019;80;28831;-62
2021/04/17 08:04:30;;;;;;;24.87;13.73;;;;;;;7.03;72.95;100693.05;2179503;80;31139;-61
2021/04/17 08:07:35;;;;;;;;;;;;;;;7.01;72.73;100695.34;2193117;80;34284;-64
2021/04/17 08:10:38;;;;;;;26.80;15.27;;;;;;;7.03;72.80;100695.70;2195288;80;30134;-62
2021/04/17 08:13:42;;;;;;;22.77;12.90;;;;;;;7.06;72.68;100707.61;2187673;80;27723;-63
2021/04/17 08:16:45;;;;;;;24.55;15.30;;;;;;;7.10;72.72;100697.29;2223220;80;28836;-62
2021/04/17 08:19:47;;;;;;;28.77;16.90;;;;;;;7.14;72.59;100696.73;2195892;80;30956;-63
2021/04/17 08:22:54;;;;;;;35.43;20.43;;;;;;;7.19;72.54;100690.83;2198812;79;33543;-63
2021/04/17 08:25:57;;;;;;;34.20;20.70;;;;;;;7.24;72.51;100692.88;2160024;81;29157;-62
2021/04/17 08:29:01;;;;;;;32.08;17.98;;;;;;;7.33;72.57;100693.06;2185310;80;28017;-62
2021/04/17 08:32:05;;;;;;;39.48;21.70;;;;;;;7.41;72.47;100693.72;2194026;80;30110;-63
2021/04/17 08:35:16;;;;;;;33.90;19.80;;;;;;;7.45;72.26;100695.34;2208780;80;31185;-63
2021/04/17 08:38:19;;;;;;;24.25;13.80;;;;;;;7.52;72.21;100699.17;2185115;81;35529;-62
2021/04/17 08:41:41;;;;;;;26.90;16.42;;;;;;;7.52;72.01;100697.84;2185611;80;30546;-63
2021/04/17 08:44:46;;;;;;;25.90;16.67;;;;;;;7.47;71.73;100691.77;2212798;80;28316;-64
2021/04/17 08:47:52;;;;;;;27.45;16.37;;;;;;;7.47;71.94;100689.09;2160527;80;29563;-64
2021/04/17 08:50:54;;;;;;;36.40;22.17;;;;;;;7.47;71.85;100691.77;2160272;81;31172;-64
2021/04/17 08:54:09;;;;;;;24.10;13.90;;;;;;;7.45;71.88;100695.83;2184774;81;33098;-70
2021/04/17 08:57:18;;;;;;;25.08;15.65;;;;;;;7.52;71.93;100688.06;2185003;81;29522;-62
2021/04/17 09:00:21;;;;;;;23.62;13.28;;;;;;;7.62;71.78;100687.29;2200003;80;27692;-65
2021/04/17 09:03:46;;;;;;;33.13;18.50;;;;;;;7.69;71.78;100687.53;2215361;80;29272;-65
2021/04/17 09:06:50;;;;;;;31.85;16.23;;;;;;;7.73;71.64;100685.63;2186966;80;32018;-65
2021/04/17 09:09:54;;;;;;;26.02;15.68;;;;;;;7.81;71.68;100694.72;2198163;80;33105;-66
2021/04/17 09:13:19;;;;;;;28.50;15.45;;;;;;;7.88;71.59;100693.13;2206514;80;30080;-62
2021/04/17 09:16:40;;;;;;;28.07;17.97;;;;;;;7.91;71.32;100686.84;2216542;80;27709;-64
2021/04/17 09:19:51;;;;;;;36.20;19.75;;;;;;;7.91;71.14;100690.85;2205474;80;29778;-62
2021/04/17 09:22:54;;;;;;;29.72;18.87;;;;;;;7.88;70.90;100679.80;2191832;80;31197;-62
2021/04/17 09:25:56;;;;;;;36.28;21.97;;;;;;;7.88;71.11;100675.80;2216471;80;33119;-62
2021/04/17 09:29:04;;;;;;;31.90;19.30;;;;;;;7.95;71.17;100675.13;2215493;80;30022;-63
2021/04/17 09:32:07;;;;;;;29.63;14.65;;;;;;;8.01;71.16;100678.09;2199910;80;28160;-63
2021/04/17 09:35:22;;;;;;;27.05;15.30;;;;;;;8.00;70.83;100679.01;2177821;81;28810;-62
2021/04/17 09:38:30;;;;;;;22.70;13.75;;;;;;;7.99;71.06;100677.27;2178042;81;32996;-65
2021/04/17 09:41:52;;;;;;;33.25;18.27;;;;;;;8.06;70.88;100681.45;2178748;80;33085;-63
2021/04/17 09:44:51;;;;;;;27.17;15.80;;;;;;;8.09;70.57;100680.50;2176501;81;29214;-65
2021/04/17 09:47:57;;;;;;;31.42;17.27;;;;;;;8.13;70.76;100679.45;2177990;81;27738;-64
2021/04/17 09:51:00;;;;;;;28.60;16.60;;;;;;;8.15;70.64;100673.61;2178638;80;28809;-62
2021/04/17 09:54:10;;;;;;;29.48;14.38;;;;;;;8.23;70.71;100671.56;2177539;81;31188;-63
2021/04/17 09:57:12;;;;;;;30.68;15.85;;;;;;;8.35;70.60;100675.14;2177715;81;33053;-64
2021/04/17 10:00:17;;;;;;;27.37;14.25;;;;;;;8.47;70.51;100670.30;2177708;81;29197;-64
2021/04/17 10:03:32;;;;;;;26.82;13.38;;;;;;;8.58;70.37;100673.52;2181062;78;28159;-65
2021/04/17 10:06:36;;;;;;;18.70;10.83;;;;;;;8.65;70.25;100665.67;2194120;80;28852;-62
2021/04/17 10:09:39;;;;;;;26.20;13.75;;;;;;;8.73;69.99;100668.55;2193617;80;31026;-62
2021/04/17 10:12:53;;;;;;;27.75;14.38;;;;;;;8.73;69.89;100665.88;2205439;80;33381;-62
2021/04/17 10:15:56;;;;;;;27.50;15.10;;;;;;;8.75;69.67;100663.55;2199275;80;29255;-62
2021/04/17 10:18:59;;;;;;;26.35;15.13;;;;;;;8.76;69.54;100663.95;2204235;80;28443;-62
2021/04/17 10:22:02;;;;;;;39.85;19.55;;;;;;;8.84;69.83;100659.67;2193881;80;28834;-62
2021/04/17 10:25:10;;;;;;;29.12;16.32;;;;;;;8.99;69.97;100648.00;2190671;80;31020;-63
2021/04/17 10:28:21;;;;;;;40.28;18.37;;;;;;;9.26;69.80;100660.79;2198070;80;34423;-62
2021/04/17 10:31:23;;;;;;;25.05;13.35;;;;;;;9.45;69.29;100656.06;2194899;78;29156;-63
2021/04/17 10:34:26;;;;;;;24.63;14.85;;;;;;;9.63;69.04;100663.37;2197539;80;28236;-63
2021/04/17 10:37:28;;;;;;;21.37;13.08;;;;;;;9.72;68.70;100651.42;2205375;80;28664;-61
2021/04/17 10:40:30;;;;;;;18.60;11.30;;;;;;;9.85;68.85;100655.34;2201280;80;31154;-62
2021/04/17 10:43:34;;;;;;;20.45;12.05;;;;;;;10.02;68.70;100650.61;2197087;80;33113;-62
2021/04/17 10:46:50;;;;;;;25.82;11.95;;;;;;;10.07;67.94;100651.78;2197641;80;29239;-63
2021/04/17 10:49:52;;;;;;;38.63;12.98;;;;;;;10.10;67.76;100653.45;2205683;80;27699;-62
2021/04/17 10:53:02;;;;;;;21.95;12.10;;;;;;;10.06;67.79;100652.72;2207316;80;29755;-62
2021/04/17 10:56:15;;;;;;;24.87;12.93;;;;;;;10.07;67.21;100651.78;2198430;80;30315;-61
2021/04/17 10:59:18;;;;;;;24.23;12.75;;;;;;;10.05;67.56;100656.33;2116015;83;35210;-62
2021/04/17 11:02:35;;;;;;;27.15;12.95;;;;;;;10.02;67.23;100651.95;2155627;81;31414;-62
2021/04/17 11:05:37;;;;;;;25.43;12.18;;;;;;;10.07;67.54;100653.13;2119284;83;27777;-61
2021/04/17 11:08:40;;;;;;;25.20;12.63;;;;;;;10.15;67.40;100656.33;2147797;82;31170;-61
2021/04/17 11:11:57;;;;;;;27.15;13.35;;;;;;;10.25;67.29;100647.92;2124378;82;31157;-61
2021/04/17 11:15:22;;;;;;;26.20;14.68;;;;;;;10.41;67.23;100646.36;2131515;82;33102;-63
2021/04/17 11:18:24;;;;;;;24.27;13.80;;;;;;;10.42;66.72;100645.42;2171988;81;30532;-64
2021/04/17 11:21:27;;;;;;;25.20;13.45;;;;;;;10.45;66.28;100650.63;2129868;83;27803;-64
2021/04/17 11:24:29;;;;;;;31.27;13.13;;;;;;;10.42;66.51;100648.11;2143017;83;28827;-63
2021/04/17 11:27:34;;;;;;;29.15;13.03;;;;;;;10.38;66.27;100652.27;2135026;83;31219;-64
2021/04/17 11:30:36;;;;;;;19.62;11.73;;;;;;;10.32;66.36;100646.25;2147422;82;33375;-63
2021/04/17 11:33:39;;;;;;;22.67;11.43;;;;;;;10.32;65.97;100645.37;2142675;82;29201;-64
2021/04/17 11:36:41;;;;;;;20.90;12.25;;;;;;;10.33;66.30;100639.97;2138313;82;27688;-62
2021/04/17 11:39:43;;;;;;;24.85;12.68;;;;;;;10.34;66.26;100640.82;2122112;82;28826;-61
2021/04/17 11:42:46;;;;;;;36.73;18.20;;;;;;;10.41;66.33;100634.76;2121644;83;31380;-62
2021/04/17 11:45:48;;;;;;;52.53;24.82;;;;;;;10.54;66.18;100635.95;2121593;83;33113;-61
2021/04/17 11:48:52;;;;;;;36.30;18.12;;;;;;;10.62;66.11;100641.86;2121516;83;29588;-61
2021/04/17 11:51:54;;;;;;;27.67;14.80;;;;;;;10.66;65.96;100637.23;2149087;82;28231;-61
2021/04/17 11:54:56;;;;;;;28.98;14.43;;;;;;;10.68;65.54;100642.50;2158217;82;28802;-61
2021/04/17 11:57:59;;;;;;;38.42;20.05;;;;;;;10.62;65.55;100643.20;2158204;82;31215;-61
2021/04/17 12:01:01;;;;;;;26.42;15.63;;;;;;;10.57;65.25;100659.08;2141860;82;34063;-61
2021/04/17 12:04:04;;;;;;;24.92;15.53;;;;;;;10.53;65.63;100646.75;2121589;82;29211;-61
2021/04/17 12:07:06;;;;;;;29.50;15.90;;;;;;;10.50;65.15;100651.78;2121558;83;27854;-61
2021/04/17 12:10:10;;;;;;;27.22;14.58;;;;;;;10.38;65.18;100647.83;2147566;82;28820;-61
2021/04/17 12:13:12;;;;;;;74.67;35.98;;;;;;;10.32;65.13;100651.61;2152192;81;31195;-61
2021/04/17 12:16:14;;;;;;;84.67;44.08;;;;;;;10.23;65.30;100652.47;2147310;82;34467;-61
2021/04/17 12:19:17;;;;;;;27.58;14.73;;;;;;;10.15;65.45;100653.66;2127186;82;29173;-61
2021/04/17 12:22:19;;;;;;;25.45;13.93;;;;;;;10.06;65.37;100661.20;2144539;82;27738;-61
2021/04/17 12:25:23;;;;;;;26.65;13.80;;;;;;;9.96;65.41;100668.73;2146763;82;28833;-61
2021/04/17 12:28:26;;;;;;;28.80;15.18;;;;;;;9.84;65.54;100672.33;2138004;82;31144;-61
2021/04/17 12:31:28;;;;;;;36.25;16.07;;;;;;;9.70;65.59;100674.69;2110771;84;33138;-61
2021/04/17 12:34:31;;;;;;;32.00;15.95;;;;;;;9.58;65.76;100676.93;2110918;84;29887;-61
2021/04/17 12:37:34;;;;;;;34.27;17.30;;;;;;;9.49;65.96;100679.09;2111353;84;27606;-61
2021/04/17 12:40:38;;;;;;;33.98;16.73;;;;;;;9.46;66.23;100677.39;2111195;84;28916;-62
2021/04/17 12:43:40;;;;;;;39.55;16.67;;;;;;;9.42;66.16;100677.98;2111298;84;32039;-62
2021/04/17 12:46:43;;;;;;;37.58;16.90;;;;;;;9.33;66.33;100678.35;2111109;84;33090;-61
2021/04/17 12:49:45;;;;;;;37.53;17.55;;;;;;;9.32;66.50;100672.59;2110199;84;29604;-61
2021/04/17 12:52:47;;;;;;;31.02;15.75;;;;;;;9.33;66.64;100668.99;2110994;84;27716;-61
2021/04/17 12:55:51;;;;;;;31.97;17.98;;;;;;;9.33;66.59;100665.43;2110770;84;28689;-61
2021/04/17 12:58:54;;;;;;;35.35;17.20;;;;;;;9.28;66.60;100668.29;2111131;84;31208;-61
2021/04/17 13:01:58;;;;;;;28.92;15.30;;;;;;;9.26;66.77;100668.81;2111012;84;34051;-61
2021/04/17 13:05:06;;;;;;;33.13;17.98;;;;;;;9.26;66.96;100673.70;2110143;84;30515;-61
2021/04/17 13:08:08;;;;;;;37.28;19.27;;;;;;;9.31;66.99;100676.20;2111005;84;27725;-62
2021/04/17 13:11:10;;;;;;;35.60;18.77;;;;;;;9.38;67.22;100663.46;2111086;82;28836;-62
2021/04/17 13:14:13;;;;;;;42.88;20.50;;;;;;;9.49;67.62;100665.23;2119615;83;32106;-62
2021/04/17 13:17:17;;;;;;;35.45;18.73;;;;;;;9.56;67.56;100671.22;2121529;83;33002;-63
2021/04/17 13:20:20;;;;;;;29.73;16.03;;;;;;;9.59;67.51;100668.42;2152843;82;30313;-63
2021/04/17 13:23:23;;;;;;;31.97;16.45;;;;;;;9.54;67.41;100669.06;2158281;82;28105;-62
2021/04/17 13:26:26;;;;;;;26.25;16.20;;;;;;;9.48;67.45;100663.98;2158070;82;28879;-62
2021/04/17 13:29:28;;;;;;;30.20;16.52;;;;;;;9.49;67.74;100669.25;2137594;81;31210;-62
2021/04/17 13:32:32;;;;;;;36.70;20.37;;;;;;;9.52;67.77;100674.94;2119067;83;27784;-62
2021/04/17 13:35:34;;;;;;;34.90;21.35;;;;;;;9.58;67.94;100669.36;2121613;83;29189;-61
2021/04/17 13:38:37;;;;;;;38.73;21.95;;;;;;;9.58;67.85;100668.02;2130569;82;27643;-61
2021/04/17 13:41:39;;;;;;;42.73;23.12;;;;;;;9.60;67.81;100673.33;2149950;81;28841;-61
2021/04/17 13:44:41;;;;;;;36.75;18.73;;;;;;;9.64;67.92;100665.56;2139272;82;32612;-62
2021/04/17 13:47:44;;;;;;;27.95;17.40;;;;;;;9.65;67.89;100661.95;2124123;82;33067;-63
2021/04/17 13:50:46;;;;;;;28.60;19.62;;;;;;;9.65;67.99;100664.63;2121409;83;29183;-62
2021/04/17 13:53:48;;;;;;;34.58;21.60;;;;;;;9.67;68.03;100666.33;2121831;82;27744;-61
2021/04/17 13:56:50;;;;;;;37.08;22.22;;;;;;;9.66;67.94;100667.27;2121834;82;28907;-62
2021/04/17 13:59:52;;;;;;;43.60;25.37;;;;;;;9.64;67.81;100662.89;2123608;82;31124;-62
2021/04/17 14:02:55;;;;;;;39.83;23.87;;;;;;;9.62;68.08;100660.28;2105811;82;33877;-62
2021/04/17 14:05:57;;;;;;;43.00;22.42;;;;;;;9.61;68.00;100662.55;2122000;82;29227;-62
2021/04/17 14:09:00;;;;;;;39.08;20.48;;;;;;;9.60;67.99;100676.86;2153240;82;27608;-62
2021/04/17 14:12:02;;;;;;;54.23;25.37;;;;;;;9.53;67.91;100674.00;2136175;82;28803;-64